Annapolis Royal, Canada
Current Conditions -  °F | °C
As of 9:00 AM on Wednesday 22 Oct 2014 (Local Time) from CYZX Reporting Station
Broken Clouds Broken Clouds  
Wind Chill: 42°   Ceiling: 8900
Heat Index: 48°   Visibility: 15mi
Dew Point: 45°   Wind: 18mph
Humidity: 87%   Direction: 80°E
Pressure: 30.28"   Gusts: 24mph
Location:  44.73°N, 65.52°W
Report Text: CYZX 221200Z 08016G21KT 15SM BKN089 BKN140 09/07 A3028 RMK AC5AC2 WNDY HILL 09020G26KT SLP254
Loading
Personal Weather Stations






























Interactive Weather Map
Tropical Storm Tracking
New forecast layout! Learn more

10-Day Weather Forecast

Advertisements
Track Severe Weather on mobile